KSEE/SEE METAR and TAF weather

Enter ICAO airport designator
Station Type Date Time Source
KSEE METAR 2019/12/13 16:47 UTC NOAA

KSEE 131647Z 00000KT 10SM SKC 12/09 A3015


Station Type Date Time Source
KSEE Decoded METAR 2019/12/13 16:47 UTC NOAA

San Diego/El Cajon, Gillespie Field Airport, CA, United States (KSEE) 32-49-34N 116-58-20W
Dec 13, 2019 - 11:47 AM EST / 2019.12.13 1647 UTC
Wind: Calm:0
Visibility: 10 mile(s):0
Sky conditions: clear
Temperature: 53 F (12 C)
Dew Point: 48 F (9 C)
Relative Humidity: 81%
Pressure (altimeter): 30.15 in. Hg (1020 hPa)
ob: KSEE 131647Z 00000KT 10SM SKC 12/09 A3015
cycle: 17

Station Type Date Time Source
KSEE TAF UTC NOAA

Error!

Example: see airport list